Weather Data

Pearl Creek Farm: 8878 N Farm Road 75, Walnut Grove MO 65770

<== Previous Day (Friday 03 Jan 2020) | Next Day (Sunday 05 Jan 2020) ==>

Summary Precipitation Data For Saturday 04 January 2020

ElementValueUnits
Precipitation0"
Notes(none)
SourcePearl Creek Farm

Summary Temperature Data For Saturday 04 January 2020

ElementValueUnits
High Temperature42 oF
Low Temperature27 oF
Average Temperature33 oF
High Humidity72 %
Low Humidity43 %
Average Humidity61 %
SourceSpringfield-Branson National Airport (SGF)

Detail Temperature Data For Saturday 04 January 2020

Date / TimeTemp (F)RH (%)Dew Pt (F)Report Date / TimeSource
2020-01-04 00:52:00 34 64 23.0 2021-01-15 18:54:53.841352 Springfield-Branson National Airport (SGF)
2020-01-04 01:52:00 33 64 22.0 2021-01-15 18:54:53.841352 Springfield-Branson National Airport (SGF)
2020-01-04 02:52:00 32 64 21.0 2021-01-15 18:54:53.841352 Springfield-Branson National Airport (SGF)
2020-01-04 03:52:00 31 64 20.0 2021-01-15 18:54:53.841352 Springfield-Branson National Airport (SGF)
2020-01-04 04:52:00 30 66 20.0 2021-01-15 18:54:53.841352 Springfield-Branson National Airport (SGF)
2020-01-04 05:52:00 29 66 19.0 2021-01-15 18:54:53.841352 Springfield-Branson National Airport (SGF)
2020-01-04 06:52:00 28 69 19.0 2021-01-15 18:54:53.841352 Springfield-Branson National Airport (SGF)
2020-01-04 07:52:00 28 69 19.0 2021-01-15 18:54:53.841352 Springfield-Branson National Airport (SGF)
2020-01-04 08:52:00 30 66 20.0 2021-01-15 18:54:53.841352 Springfield-Branson National Airport (SGF)
2020-01-04 09:52:00 32 66 22.0 2021-01-15 18:54:53.841352 Springfield-Branson National Airport (SGF)
2020-01-04 10:52:00 35 59 22.0 2021-01-15 18:54:53.841352 Springfield-Branson National Airport (SGF)
2020-01-04 11:52:00 38 52 22.0 2021-01-15 18:54:53.841352 Springfield-Branson National Airport (SGF)
2020-01-04 12:52:00 40 51 23.0 2021-01-15 18:54:53.841352 Springfield-Branson National Airport (SGF)
2020-01-04 13:52:00 41 49 23.0 2021-01-15 18:54:53.841352 Springfield-Branson National Airport (SGF)
2020-01-04 14:52:00 42 47 23.0 2021-01-15 18:54:53.841352 Springfield-Branson National Airport (SGF)
2020-01-04 15:52:00 41 43 20.0 2021-01-15 18:54:53.841352 Springfield-Branson National Airport (SGF)
2020-01-04 16:52:00 40 43 19.0 2021-01-15 18:54:53.841352 Springfield-Branson National Airport (SGF)
2020-01-04 17:52:00 37 48 19.0 2021-01-15 18:54:53.841352 Springfield-Branson National Airport (SGF)
2020-01-04 18:52:00 27 72 19.0 2021-01-15 18:54:53.841352 Springfield-Branson National Airport (SGF)
2020-01-04 19:52:00 27 72 19.0 2021-01-15 18:54:53.841352 Springfield-Branson National Airport (SGF)
2020-01-04 20:52:00 30 64 19.0 2021-01-15 18:54:53.841352 Springfield-Branson National Airport (SGF)
2020-01-04 21:52:00 30 64 19.0 2021-01-15 18:54:53.841352 Springfield-Branson National Airport (SGF)
2020-01-04 22:52:00 30 64 19.0 2021-01-15 18:54:53.841352 Springfield-Branson National Airport (SGF)
2020-01-04 23:52:00 29 66 19.0 2021-01-15 18:54:53.841352 Springfield-Branson National Airport (SGF)

A total of 24 rows are displayed.